Time;durP1;ratioP1;P1;durP2;ratioP2;P2;SDS_P1;SDS_P2;PMS_P1;PMS_P2;Temp;Humidity;BMP_temperature;BMP_pressure;BME280_temperature;BME280_humidity;BME280_pressure;Samples;Min_cycle;Max_cycle;Signal;HPM_P1;HPM_P2
2023/12/16 00:01:55;;;;;;;15.70;6.03;;;6.70;99.90;;;;;;5075154;28;20207;-49
2023/12/16 00:04:21;;;;;;;14.40;5.30;;;6.70;99.90;;;;;;5057713;28;20186;-48
2023/12/16 00:06:47;;;;;;;15.07;5.67;;;6.70;99.90;;;;;;5074808;28;20585;-48
2023/12/16 00:09:19;;;;;;;13.83;5.47;;;6.70;99.90;;;;;;5057354;28;20207;-48
2023/12/16 00:11:47;;;;;;;13.57;5.40;;;6.70;99.90;;;;;;5074959;28;20170;-48
2023/12/16 00:14:13;;;;;;;12.83;5.17;;;6.70;99.90;;;;;;5074905;28;20230;-49
2023/12/16 00:16:48;;;;;;;15.07;5.70;;;6.70;99.90;;;;;;5074648;28;20211;-48
2023/12/16 00:19:14;;;;;;;15.30;5.43;;;6.60;99.90;;;;;;5057280;28;20223;-46
2023/12/16 00:21:43;;;;;;;18.17;6.53;;;6.60;99.90;;;;;;5056242;28;20211;-49
2023/12/16 00:24:12;;;;;;;16.73;5.40;;;6.60;99.90;;;;;;5074433;28;20218;-48
2023/12/16 00:26:37;;;;;;;14.60;5.90;;;6.60;99.90;;;;;;5074459;28;20217;-48
2023/12/16 00:29:03;;;;;;;23.97;5.90;;;6.70;99.90;;;;;;5056456;28;20207;-48
2023/12/16 00:31:30;;;;;;;17.40;5.87;;;6.70;99.90;;;;;;5074613;28;20186;-48
2023/12/16 00:33:56;;;;;;;16.53;5.83;;;6.70;99.90;;;;;;5056403;28;20270;-50
2023/12/16 00:36:21;;;;;;;12.60;6.03;;;6.60;99.90;;;;;;5074574;28;20273;-48
2023/12/16 00:38:48;;;;;;;20.40;5.70;;;6.70;99.90;;;;;;5078145;28;20188;-50
2023/12/16 00:41:15;;;;;;;13.77;5.70;;;6.60;99.90;;;;;;5075237;28;20249;-48
2023/12/16 00:43:44;;;;;;;12.87;5.03;;;6.60;99.90;;;;;;5056582;28;20180;-48
2023/12/16 00:46:10;;;;;;;21.50;5.83;;;6.60;99.90;;;;;;5074083;28;20176;-49
2023/12/16 00:48:35;;;;;;;14.17;5.40;;;6.60;99.90;;;;;;5074211;28;20666;-49
2023/12/16 00:51:03;;;;;;;18.27;5.57;;;6.70;99.90;;;;;;5074206;28;20565;-47
2023/12/16 00:53:36;;;;;;;20.57;5.60;;;6.60;99.90;;;;;;5055281;28;20651;-49
2023/12/16 00:56:01;;;;;;;12.27;5.30;;;6.70;99.90;;;;;;5074127;28;20262;-49
2023/12/16 00:58:27;;;;;;;15.53;4.90;;;6.70;99.90;;;;;;5073823;28;20258;-48
2023/12/16 01:00:53;;;;;;;16.13;5.37;;;6.70;99.90;;;;;;5056097;28;20206;-49
2023/12/16 01:03:19;;;;;;;18.53;5.07;;;6.70;99.90;;;;;;5074176;28;20214;-49
2023/12/16 01:05:47;;;;;;;14.53;5.77;;;6.70;99.90;;;;;;5073960;28;20257;-48
2023/12/16 01:08:13;;;;;;;14.53;4.83;;;6.70;99.90;;;;;;5073951;28;20190;-49
2023/12/16 01:10:42;;;;;;;14.53;4.77;;;6.70;99.90;;;;;;5073627;28;20199;-49
2023/12/16 01:13:09;;;;;;;14.77;5.13;;;6.70;99.90;;;;;;5055729;28;20293;-48
2023/12/16 01:15:36;;;;;;;15.87;5.03;;;6.70;99.90;;;;;;5055819;28;20192;-48
2023/12/16 01:18:05;;;;;;;12.07;5.00;;;6.70;99.90;;;;;;5073822;28;20192;-47
2023/12/16 01:20:33;;;;;;;14.67;4.97;;;6.70;99.90;;;;;;5055530;28;20203;-48
2023/12/16 01:23:02;;;;;;;11.90;4.07;;;6.70;99.90;;;;;;5055358;28;20576;-48
2023/12/16 01:25:28;;;;;;;16.37;4.27;;;6.70;99.90;;;;;;5056095;28;20194;-48
2023/12/16 01:27:53;;;;;;;14.47;5.07;;;6.70;99.90;;;;;;5073712;28;20183;-47
2023/12/16 01:30:19;;;;;;;12.57;4.30;;;6.70;99.90;;;;;;5073467;28;20199;-49
2023/12/16 01:32:46;;;;;;;15.40;4.63;;;6.70;99.90;;;;;;5073505;28;20258;-47
2023/12/16 01:35:14;;;;;;;11.73;4.40;;;6.70;99.90;;;;;;5073379;28;20179;-47
2023/12/16 01:37:40;;;;;;;9.90;4.30;;;6.70;99.90;;;;;;5073709;28;20171;-48
2023/12/16 01:40:09;;;;;;;13.43;4.07;;;6.70;99.90;;;;;;5073146;28;20693;-48
2023/12/16 01:42:37;;;;;;;11.67;4.20;;;6.70;99.90;;;;;;5055314;28;20214;-48
2023/12/16 01:45:03;;;;;;;14.87;4.77;;;6.70;99.90;;;;;;5038852;28;20263;-48
2023/12/16 01:47:35;;;;;;;15.47;4.70;;;6.70;99.90;;;;;;5072835;28;20192;-49
2023/12/16 01:50:01;;;;;;;12.27;3.90;;;6.70;99.90;;;;;;5073749;28;20236;-47
2023/12/16 01:52:30;;;;;;;15.90;4.33;;;6.70;99.90;;;;;;5073728;28;20211;-48
2023/12/16 01:54:59;;;;;;;11.40;4.17;;;6.70;99.90;;;;;;5073171;28;20206;-47
2023/12/16 01:57:27;;;;;;;18.03;4.53;;;6.70;99.90;;;;;;5073360;28;20190;-48
2023/12/16 02:00:06;;;;;;;14.90;4.10;;;6.70;99.90;;;;;;5073099;28;20199;-48
2023/12/16 02:02:32;;;;;;;12.97;4.20;;;6.70;99.90;;;;;;5073346;28;20268;-48
2023/12/16 02:05:00;;;;;;;14.70;3.70;;;6.70;99.90;;;;;;5057113;28;20635;-48
2023/12/16 02:07:29;;;;;;;12.90;3.77;;;6.70;99.90;;;;;;5042610;28;20193;-48
2023/12/16 02:09:55;;;;;;;17.10;4.40;;;6.70;99.90;;;;;;5076984;28;20204;-49
2023/12/16 02:15:48;;;;;;;11.60;4.23;;;6.70;99.90;;;;;;5077004;28;20240;-48
2023/12/16 02:18:14;;;;;;;10.70;3.93;;;6.70;99.90;;;;;;5077193;28;20175;-48
2023/12/16 02:20:40;;;;;;;11.67;4.80;;;6.70;99.90;;;;;;5077166;28;20264;-48
2023/12/16 02:23:20;;;;;;;11.87;4.23;;;6.70;99.90;;;;;;5059285;28;20210;-48
2023/12/16 02:25:46;;;;;;;18.00;5.17;;;6.60;99.90;;;;;;5077120;28;20166;-48
2023/12/16 02:28:12;;;;;;;11.37;5.33;;;6.60;99.90;;;;;;5076842;28;20515;-48
2023/12/16 02:30:38;;;;;;;12.47;4.13;;;6.60;99.90;;;;;;5076688;28;20207;-48
2023/12/16 02:33:05;;;;;;;14.47;4.83;;;6.70;99.90;;;;;;5042161;28;20198;-48
2023/12/16 02:35:33;;;;;;;16.23;4.57;;;6.70;99.90;;;;;;5058880;28;20179;-48
2023/12/16 02:38:00;;;;;;;13.43;4.60;;;6.60;99.90;;;;;;5077580;28;20522;-48
2023/12/16 02:40:42;;;;;;;11.63;4.17;;;6.60;99.90;;;;;;5060931;28;20211;-49
2023/12/16 02:43:09;;;;;;;8.63;4.10;;;6.60;99.90;;;;;;5080995;28;20195;-49
2023/12/16 02:45:35;;;;;;;10.10;4.00;;;6.70;99.90;;;;;;5046573;28;20179;-49
2023/12/16 02:48:01;;;;;;;18.03;4.40;;;6.60;99.90;;;;;;5080408;28;20183;-48
2023/12/16 02:50:27;;;;;;;14.83;4.37;;;6.60;99.90;;;;;;5080104;28;20233;-48
2023/12/16 02:52:55;;;;;;;12.53;3.83;;;6.60;99.90;;;;;;5062669;28;20180;-49
2023/12/16 02:55:23;;;;;;;8.67;3.93;;;6.60;99.90;;;;;;5079838;28;20180;-48
2023/12/16 02:57:48;;;;;;;11.63;4.40;;;6.60;99.90;;;;;;5062069;28;20191;-48
2023/12/16 03:00:20;;;;;;;10.33;4.10;;;6.50;99.90;;;;;;5062926;28;20302;-49
2023/12/16 03:02:47;;;;;;;13.07;4.57;;;6.50;99.90;;;;;;5063584;28;20211;-49
2023/12/16 03:05:15;;;;;;;12.13;4.13;;;6.50;99.90;;;;;;5064009;28;20574;-48
2023/12/16 03:11:04;;;;;;;8.07;3.73;;;6.50;99.90;;;;;;5089869;28;20165;-49
2023/12/16 03:13:31;;;;;;;17.30;4.77;;;6.50;99.90;;;;;;5089673;28;20183;-48
2023/12/16 03:15:57;;;;;;;13.10;3.87;;;6.50;99.90;;;;;;5089457;28;20184;-50
2023/12/16 03:18:22;;;;;;;16.30;4.33;;;6.40;99.90;;;;;;5088977;28;20253;-48
2023/12/16 03:20:52;;;;;;;10.47;4.40;;;6.50;99.90;;;;;;5080968;28;20230;-49
2023/12/16 03:23:21;;;;;;;14.70;4.57;;;6.40;99.90;;;;;;5080056;28;20294;-50
2023/12/16 03:25:47;;;;;;;18.07;4.50;;;6.50;99.90;;;;;;5080995;28;20176;-49
2023/12/16 03:28:13;;;;;;;13.03;4.37;;;6.40;99.90;;;;;;5080811;28;20186;-48
2023/12/16 03:30:40;;;;;;;11.93;4.17;;;6.40;99.90;;;;;;5063408;28;20207;-49
2023/12/16 03:33:09;;;;;;;12.93;4.40;;;6.40;99.90;;;;;;5080648;28;20593;-49
2023/12/16 03:35:48;;;;;;;11.97;4.27;;;6.40;99.90;;;;;;5080561;28;20171;-49
2023/12/16 03:38:16;;;;;;;14.47;4.57;;;6.40;99.90;;;;;;5075859;28;20194;-49
2023/12/16 03:40:42;;;;;;;11.97;3.97;;;6.40;99.90;;;;;;5080540;28;20212;-50
2023/12/16 03:43:37;;;;;;;13.53;4.50;;;6.40;99.90;;;;;;5062041;28;20278;-48
2023/12/16 03:46:04;;;;;;;10.23;4.17;;;6.40;99.90;;;;;;5080267;28;20255;-48
2023/12/16 03:48:30;;;;;;;11.07;4.40;;;6.40;99.90;;;;;;5080183;28;20172;-49
2023/12/16 03:50:55;;;;;;;14.53;4.87;;;6.40;99.90;;;;;;5080327;28;20297;-49
2023/12/16 03:53:34;;;;;;;18.80;4.37;;;6.40;99.90;;;;;;5061956;28;20643;-48
2023/12/16 03:55:59;;;;;;;13.33;4.80;;;6.40;99.90;;;;;;5079710;28;20187;-50
2023/12/16 03:58:28;;;;;;;6.97;4.17;;;6.50;99.90;;;;;;5080226;28;20201;-48
2023/12/16 04:00:54;;;;;;;14.27;4.20;;;6.40;99.90;;;;;;5079980;28;20207;-49
2023/12/16 04:03:20;;;;;;;10.17;4.30;;;6.40;99.90;;;;;;5079737;28;20203;-48
2023/12/16 04:05:49;;;;;;;17.53;4.57;;;6.40;99.90;;;;;;5062111;28;20188;-48
2023/12/16 04:08:16;;;;;;;11.43;4.20;;;6.40;99.90;;;;;;5079732;28;20249;-48
2023/12/16 04:10:43;;;;;;;18.20;4.83;;;6.50;99.90;;;;;;5061549;28;20690;-49
2023/12/16 04:13:35;;;;;;;14.93;4.73;;;6.50;99.90;;;;;;5080120;28;20183;-48
2023/12/16 04:16:03;;;;;;;11.10;4.23;;;6.50;99.90;;;;;;5073695;28;20195;-49
2023/12/16 04:18:32;;;;;;;17.77;4.80;;;6.50;99.90;;;;;;5058964;28;20189;-49
2023/12/16 04:20:59;;;;;;;14.23;4.60;;;6.40;99.90;;;;;;5077908;28;20206;-49
2023/12/16 04:23:28;;;;;;;11.80;4.53;;;6.50;99.90;;;;;;5079385;28;20321;-46
2023/12/16 04:25:56;;;;;;;17.53;3.90;;;6.50;99.90;;;;;;5074584;28;20183;-48
2023/12/16 04:28:22;;;;;;;13.17;4.27;;;6.50;99.90;;;;;;5073496;28;20268;-49
2023/12/16 04:30:51;;;;;;;12.57;4.20;;;6.50;99.90;;;;;;5074599;28;20671;-48
2023/12/16 04:33:20;;;;;;;13.07;4.00;;;6.50;99.90;;;;;;5074237;28;20618;-49
2023/12/16 04:35:48;;;;;;;11.97;4.63;;;6.40;99.90;;;;;;5074422;28;20195;-48
2023/12/16 04:38:17;;;;;;;11.57;4.47;;;6.40;99.90;;;;;;5074777;28;20655;-47
2023/12/16 04:40:44;;;;;;;14.60;4.67;;;6.40;99.90;;;;;;5075587;28;20280;-48
2023/12/16 04:43:10;;;;;;;10.00;3.93;;;6.40;99.90;;;;;;5075993;28;20215;-48
2023/12/16 04:45:38;;;;;;;11.93;4.20;;;6.40;99.90;;;;;;5058169;28;20274;-47
2023/12/16 04:48:04;;;;;;;9.17;4.07;;;6.30;99.90;;;;;;5058043;28;20195;-49
2023/12/16 04:50:30;;;;;;;14.93;3.97;;;6.30;99.90;;;;;;5039582;28;20261;-49
2023/12/16 04:52:59;;;;;;;12.37;3.70;;;6.30;99.90;;;;;;5056220;28;20187;-48
2023/12/16 04:55:28;;;;;;;10.17;3.53;;;6.30;99.90;;;;;;5074242;28;20187;-47
2023/12/16 04:57:54;;;;;;;10.07;4.03;;;6.30;99.90;;;;;;5056279;28;20191;-49
2023/12/16 05:00:21;;;;;;;13.87;3.93;;;6.30;99.90;;;;;;5074074;28;20663;-47
2023/12/16 05:02:47;;;;;;;12.20;3.77;;;6.30;99.90;;;;;;5074161;28;20716;-48
2023/12/16 05:05:13;;;;;;;10.23;3.67;;;6.30;99.90;;;;;;5056052;28;20270;-50
2023/12/16 05:07:39;;;;;;;18.13;4.17;;;6.40;99.90;;;;;;5073732;28;20183;-49
2023/12/16 05:10:10;;;;;;;16.57;4.23;;;6.40;99.90;;;;;;5074242;28;20205;-47
2023/12/16 05:12:42;;;;;;;7.43;3.23;;;6.30;99.90;;;;;;5073986;28;20176;-50
2023/12/16 05:15:10;;;;;;;13.60;3.57;;;6.40;99.90;;;;;;5073064;28;20201;-48
2023/12/16 05:17:36;;;;;;;14.40;3.93;;;6.40;99.90;;;;;;5073907;28;20211;-48
2023/12/16 05:20:07;;;;;;;13.97;4.40;;;6.30;99.90;;;;;;5073470;28;20222;-48
2023/12/16 05:22:35;;;;;;;19.23;4.53;;;6.30;99.90;;;;;;5073400;28;20305;-50
2023/12/16 05:28:24;;;;;;;9.60;3.80;;;6.30;99.90;;;;;;5073601;28;20185;-49
2023/12/16 05:30:50;;;;;;;10.13;3.40;;;6.30;99.90;;;;;;5073792;28;20659;-44
2023/12/16 05:33:16;;;;;;;10.77;4.23;;;6.30;99.90;;;;;;5073445;28;20244;-43
2023/12/16 05:35:41;;;;;;;11.93;3.43;;;6.30;99.90;;;;;;5073669;28;20179;-43
2023/12/16 05:38:10;;;;;;;10.27;3.93;;;6.30;99.90;;;;;;5073711;28;20232;-43
2023/12/16 05:40:36;;;;;;;16.20;4.60;;;6.30;99.90;;;;;;5073229;28;20199;-43
2023/12/16 05:43:20;;;;;;;18.70;3.83;;;6.30;99.90;;;;;;5055376;28;20232;-42
2023/12/16 05:45:49;;;;;;;12.43;3.80;;;6.30;99.90;;;;;;5073827;28;20175;-43
2023/12/16 05:48:18;;;;;;;17.33;4.47;;;6.30;99.90;;;;;;5073477;28;20179;-43
2023/12/16 05:50:43;;;;;;;13.97;4.10;;;6.30;99.90;;;;;;5073398;28;20203;-43
2023/12/16 05:53:09;;;;;;;7.07;3.20;;;6.30;99.90;;;;;;5073879;28;20705;-43
2023/12/16 05:55:39;;;;;;;14.03;3.60;;;6.30;99.90;;;;;;5073163;28;20649;-43
2023/12/16 05:58:06;;;;;;;16.50;4.03;;;6.30;99.90;;;;;;5067948;28;20202;-43
2023/12/16 06:00:32;;;;;;;11.87;4.03;;;6.30;99.90;;;;;;5073004;28;20214;-44
2023/12/16 06:02:57;;;;;;;18.60;3.70;;;6.30;99.90;;;;;;5073066;28;20235;-43
2023/12/16 06:05:23;;;;;;;11.67;3.43;;;6.40;99.90;;;;;;5073395;28;20514;-43
2023/12/16 06:07:50;;;;;;;9.83;3.67;;;6.30;99.90;;;;;;5073382;28;20644;-43
2023/12/16 06:10:19;;;;;;;16.13;4.20;;;6.40;99.90;;;;;;5055171;28;20286;-43
2023/12/16 06:19:34;;;;;;;13.70;3.40;;;6.40;99.90;;;;;;5073040;28;20268;-44
2023/12/16 06:22:00;;;;;;;12.73;3.10;;;6.40;99.90;;;;;;5072842;28;20324;-44
2023/12/16 06:24:39;;;;;;;10.07;2.90;;;6.50;99.90;;;;;;5072926;28;20211;-43
2023/12/16 06:27:05;;;;;;;17.87;3.63;;;6.50;99.90;;;;;;5072877;28;20672;-44
2023/12/16 06:29:32;;;;;;;13.40;3.30;;;6.50;99.90;;;;;;5072824;28;20284;-43
2023/12/16 06:32:02;;;;;;;16.37;3.40;;;6.50;99.90;;;;;;5073084;28;20191;-42
2023/12/16 06:34:30;;;;;;;17.03;3.97;;;6.50;99.90;;;;;;5072650;28;20198;-45
2023/12/16 06:37:24;;;;;;;15.97;4.10;;;6.50;99.90;;;;;;5072856;28;20262;-46
2023/12/16 06:39:50;;;;;;;15.13;3.77;;;6.60;99.90;;;;;;5072954;28;20203;-44
2023/12/16 06:42:16;;;;;;;14.00;3.93;;;6.60;99.90;;;;;;5072636;28;20580;-43
2023/12/16 06:44:42;;;;;;;14.97;3.70;;;6.60;99.90;;;;;;5072749;28;20180;-44
2023/12/16 06:47:08;;;;;;;12.77;3.90;;;6.60;99.90;;;;;;5073007;28;20188;-43
2023/12/16 06:49:38;;;;;;;12.13;3.70;;;6.60;99.90;;;;;;5072613;28;20221;-44
2023/12/16 06:52:05;;;;;;;16.17;3.70;;;6.60;99.90;;;;;;5074602;28;20670;-44
2023/12/16 06:54:32;;;;;;;13.20;3.40;;;6.60;99.90;;;;;;5076543;28;20183;-44
2023/12/16 06:56:57;;;;;;;14.07;3.60;;;6.50;99.90;;;;;;5076230;28;20552;-43
2023/12/16 06:59:23;;;;;;;11.20;3.17;;;6.50;99.90;;;;;;5076397;28;20204;-43
2023/12/16 07:01:51;;;;;;;6.53;3.43;;;6.50;99.90;;;;;;5076038;28;20689;-43
2023/12/16 07:04:28;;;;;;;14.33;3.63;;;6.40;99.90;;;;;;5076285;28;20183;-43
2023/12/16 07:06:55;;;;;;;12.83;2.87;;;6.30;99.90;;;;;;5076009;28;20271;-43
2023/12/16 07:09:20;;;;;;;12.83;3.13;;;6.30;99.90;;;;;;5058057;28;20706;-45
2023/12/16 07:11:49;;;;;;;15.03;3.47;;;6.30;99.90;;;;;;5076209;28;20186;-44
2023/12/16 07:14:15;;;;;;;7.57;2.83;;;6.30;99.90;;;;;;5075897;28;20661;-44
2023/12/16 07:16:42;;;;;;;17.13;4.07;;;6.20;99.90;;;;;;5075830;28;20182;-43
2023/12/16 07:19:08;;;;;;;9.00;3.03;;;6.10;99.90;;;;;;5076101;28;20237;-44
2023/12/16 07:21:35;;;;;;;15.37;3.40;;;6.10;99.90;;;;;;5075974;28;20206;-45
2023/12/16 07:24:03;;;;;;;12.37;3.53;;;6.00;99.90;;;;;;5075971;28;20628;-44
2023/12/16 07:26:30;;;;;;;12.27;3.60;;;6.00;99.90;;;;;;5075953;28;20586;-43
2023/12/16 07:28:56;;;;;;;12.83;3.27;;;5.90;99.90;;;;;;5075617;28;20183;-44
2023/12/16 07:31:29;;;;;;;10.80;3.73;;;5.90;99.90;;;;;;5075648;28;20204;-43
2023/12/16 07:33:59;;;;;;;10.93;3.93;;;5.90;99.90;;;;;;5076157;28;20183;-45
2023/12/16 07:36:26;;;;;;;16.83;3.70;;;5.90;99.90;;;;;;5076505;28;20248;-43
2023/12/16 07:38:55;;;;;;;16.23;3.73;;;5.80;99.90;;;;;;5077096;28;20639;-43
2023/12/16 07:41:44;;;;;;;8.53;3.10;;;5.80;99.90;;;;;;5074920;28;20187;-46
2023/12/16 07:44:11;;;;;;;8.73;3.27;;;5.70;99.90;;;;;;5075061;28;20200;-43
2023/12/16 07:46:40;;;;;;;16.00;3.27;;;5.70;99.90;;;;;;5057147;28;20205;-46
2023/12/16 07:49:06;;;;;;;10.93;3.17;;;5.70;99.90;;;;;;5075174;28;20231;-45
2023/12/16 07:51:32;;;;;;;13.77;3.80;;;5.70;99.90;;;;;;5075189;28;20209;-43
2023/12/16 07:54:01;;;;;;;10.70;2.57;;;5.70;99.90;;;;;;5075376;28;20214;-43
2023/12/16 07:56:30;;;;;;;12.00;3.07;;;5.70;99.90;;;;;;5075045;28;20179;-45
2023/12/16 07:58:59;;;;;;;13.93;3.40;;;5.70;99.90;;;;;;5074994;28;20183;-44
2023/12/16 08:01:26;;;;;;;12.87;3.67;;;5.70;99.90;;;;;;5075155;28;20190;-45
2023/12/16 08:03:52;;;;;;;14.60;3.43;;;5.70;99.90;;;;;;5057067;28;20266;-43
2023/12/16 08:06:20;;;;;;;12.40;3.63;;;5.70;99.90;;;;;;5057500;28;20206;-43
2023/12/16 08:08:54;;;;;;;17.97;4.37;;;5.70;99.90;;;;;;5072599;28;20201;-44
2023/12/16 08:11:23;;;;;;;15.60;3.33;;;5.70;99.90;;;;;;5074847;28;20178;-43
2023/12/16 08:13:51;;;;;;;12.97;2.90;;;5.70;99.90;;;;;;5074984;28;20589;-43
2023/12/16 08:16:16;;;;;;;13.07;3.37;;;5.70;99.90;;;;;;5074873;28;20182;-43
2023/12/16 08:18:42;;;;;;;12.60;2.90;;;5.70;99.90;;;;;;5057389;28;20274;-44
2023/12/16 08:21:09;;;;;;;11.40;3.20;;;5.80;99.90;;;;;;5074950;28;20178;-44
2023/12/16 08:23:36;;;;;;;11.63;3.50;;;5.80;99.90;;;;;;5056742;28;20711;-43
2023/12/16 08:26:08;;;;;;;12.70;3.13;;;5.80;99.90;;;;;;5056869;28;20232;-42
2023/12/16 08:28:37;;;;;;;14.23;3.30;;;5.80;99.90;;;;;;5056919;28;20190;-44
2023/12/16 08:31:03;;;;;;;12.47;2.90;;;5.80;99.90;;;;;;5040669;28;20190;-42
2023/12/16 08:33:29;;;;;;;8.90;3.40;;;5.90;99.90;;;;;;5074692;28;20213;-45
2023/12/16 08:36:06;;;;;;;11.27;3.50;;;5.90;99.90;;;;;;5074572;28;20183;-44
2023/12/16 08:38:35;;;;;;;13.57;3.10;;;5.90;99.90;;;;;;5074683;28;20182;-43
2023/12/16 08:41:08;;;;;;;11.00;2.63;;;5.90;99.90;;;;;;5056500;28;20225;-44
2023/12/16 08:43:37;;;;;;;8.90;3.00;;;6.00;99.90;;;;;;5056571;28;20243;-43
2023/12/16 08:46:23;;;;;;;11.90;3.40;;;6.00;99.90;;;;;;5074066;28;20244;-45
2023/12/16 08:48:53;;;;;;;11.17;2.93;;;6.00;99.90;;;;;;5070482;28;20259;-44
2023/12/16 08:51:25;;;;;;;14.53;3.20;;;6.00;99.90;;;;;;5073980;28;20191;-42
2023/12/16 08:53:51;;;;;;;11.33;3.17;;;6.10;99.90;;;;;;5074407;28;20190;-45
2023/12/16 08:56:18;;;;;;;12.90;3.23;;;6.10;99.90;;;;;;5073995;28;20185;-44
2023/12/16 08:59:04;;;;;;;13.37;3.23;;;6.20;99.90;;;;;;5073076;28;20194;-44
2023/12/16 09:01:30;;;;;;;16.77;2.73;;;6.30;99.90;;;;;;5074200;28;20263;-44
2023/12/16 09:04:02;;;;;;;10.90;3.50;;;6.30;99.90;;;;;;5056138;28;20178;-41
2023/12/16 09:06:30;;;;;;;11.60;3.00;;;6.40;99.90;;;;;;5073244;28;20210;-44
2023/12/16 09:09:00;;;;;;;14.27;3.50;;;6.40;99.90;;;;;;5056238;28;20186;-44
2023/12/16 09:11:27;;;;;;;14.97;3.03;;;6.50;99.90;;;;;;5068651;28;20190;-45
2023/12/16 09:13:55;;;;;;;12.10;3.27;;;6.60;99.90;;;;;;5073689;28;20232;-43
2023/12/16 09:16:24;;;;;;;13.73;2.87;;;6.60;99.90;;;;;;5073737;28;20175;-43
2023/12/16 09:18:50;;;;;;;9.63;2.93;;;6.60;99.90;;;;;;5073830;28;20196;-44
2023/12/16 09:21:16;;;;;;;17.27;3.00;;;6.70;99.90;;;;;;5039011;28;20725;-45
2023/12/16 09:23:41;;;;;;;16.97;3.37;;;6.70;99.90;;;;;;5073771;28;20180;-43
2023/12/16 09:26:13;;;;;;;17.73;4.70;;;6.80;99.90;;;;;;5073803;28;20191;-43
2023/12/16 09:28:42;;;;;;;17.43;3.47;;;6.80;99.90;;;;;;5073947;28;20182;-44
2023/12/16 09:31:09;;;;;;;13.23;3.27;;;6.90;99.90;;;;;;5073475;28;20183;-44
2023/12/16 09:33:37;;;;;;;13.90;2.83;;;6.90;99.90;;;;;;5073662;28;20183;-45
2023/12/16 09:36:04;;;;;;;8.43;2.60;;;6.90;99.90;;;;;;5073432;28;20187;-44
2023/12/16 09:38:36;;;;;;;17.93;3.80;;;7.00;99.90;;;;;;5073375;28;20183;-44
2023/12/16 09:41:02;;;;;;;22.20;3.30;;;7.10;99.90;;;;;;5073334;28;20195;-43
2023/12/16 09:43:33;;;;;;;14.30;3.27;;;7.10;99.90;;;;;;5072986;28;20620;-45
2023/12/16 09:46:06;;;;;;;12.40;3.43;;;7.20;99.90;;;;;;5071085;28;20557;-44
2023/12/16 09:48:33;;;;;;;10.03;3.43;;;7.20;99.90;;;;;;5073344;28;20716;-45
2023/12/16 09:51:02;;;;;;;12.77;3.17;;;7.30;99.90;;;;;;5073590;28;20222;-45
2023/12/16 09:53:34;;;;;;;14.50;3.40;;;7.30;99.90;;;;;;5073735;28;20164;-45
2023/12/16 09:55:59;;;;;;;12.27;3.53;;;7.40;99.90;;;;;;5073694;28;20538;-45
2023/12/16 09:58:31;;;;;;;14.33;3.40;;;7.50;99.90;;;;;;5073171;28;20183;-43
2023/12/16 10:00:57;;;;;;;18.40;2.97;;;7.50;99.90;;;;;;5057498;28;20674;-44
2023/12/16 10:03:24;;;;;;;12.40;3.57;;;7.60;99.90;;;;;;5073334;28;20237;-44
2023/12/16 10:05:51;;;;;;;22.63;4.80;;;7.70;99.90;;;;;;5055368;28;20192;-43
2023/12/16 10:08:17;;;;;;;10.90;3.47;;;7.70;99.90;;;;;;5055370;28;20252;-44
2023/12/16 10:14:11;;;;;;;13.87;3.47;;;7.80;99.90;;;;;;5073133;28;20174;-43
2023/12/16 10:16:36;;;;;;;18.00;3.77;;;7.90;99.90;;;;;;5073270;28;20176;-44
2023/12/16 10:19:03;;;;;;;14.60;3.83;;;7.90;99.90;;;;;;5055065;28;20222;-44
2023/12/16 10:21:34;;;;;;;15.63;3.67;;;8.00;99.90;;;;;;5073168;28;20588;-43
2023/12/16 10:24:02;;;;;;;14.97;3.57;;;8.00;99.90;;;;;;5073052;28;20545;-45
2023/12/16 10:26:43;;;;;;;19.00;3.93;;;8.10;99.90;;;;;;5073342;28;20194;-45
2023/12/16 10:29:35;;;;;;;13.93;3.43;;;8.10;99.90;;;;;;5059114;28;20732;-43
2023/12/16 10:32:01;;;;;;;17.73;3.23;;;8.20;99.90;;;;;;5076677;28;20186;-43
2023/12/16 10:34:30;;;;;;;16.37;3.30;;;8.30;99.90;;;;;;5077247;28;20496;-45
2023/12/16 10:37:06;;;;;;;13.77;2.87;;;8.40;99.90;;;;;;5076970;28;20571;-44
2023/12/16 10:39:34;;;;;;;12.63;3.33;;;8.40;99.90;;;;;;5058305;28;20743;-44
2023/12/16 10:42:03;;;;;;;14.73;3.33;;;8.50;99.90;;;;;;5076450;28;20206;-45
2023/12/16 10:44:30;;;;;;;11.00;3.10;;;8.60;99.90;;;;;;5059160;28;20228;-45
2023/12/16 10:46:59;;;;;;;18.10;3.83;;;8.60;99.90;;;;;;5076500;28;20743;-42
2023/12/16 10:49:34;;;;;;;16.37;3.13;;;8.70;99.90;;;;;;5076048;28;20202;-44
2023/12/16 10:52:12;;;;;;;14.57;3.20;;;8.80;99.90;;;;;;5076250;28;20183;-44
2023/12/16 10:54:44;;;;;;;16.87;2.83;;;8.90;99.90;;;;;;5042363;28;20188;-44
2023/12/16 10:57:46;;;;;;;11.00;3.20;;;9.00;99.90;;;;;;5076180;28;20263;-44
2023/12/16 11:00:22;;;;;;;12.10;2.70;;;9.10;99.90;;;;;;5076650;28;20269;-44
2023/12/16 11:03:07;;;;;;;14.40;3.37;;;9.10;99.90;;;;;;5058591;28;20196;-43
2023/12/16 11:05:49;;;;;;;10.77;3.00;;;9.20;99.90;;;;;;5076383;28;20538;-44
2023/12/16 11:08:19;;;;;;;19.97;3.63;;;9.30;99.90;;;;;;5075993;28;20263;-43
2023/12/16 11:10:45;;;;;;;17.37;3.00;;;9.40;99.90;;;;;;5075108;28;20211;-44
2023/12/16 11:13:12;;;;;;;20.00;3.37;;;9.40;99.90;;;;;;5076373;28;20181;-45
2023/12/16 11:15:38;;;;;;;14.73;3.30;;;9.50;99.90;;;;;;5057916;28;20194;-43
2023/12/16 11:18:09;;;;;;;10.50;3.10;;;9.60;99.90;;;;;;5076162;28;20186;-44
2023/12/16 11:20:49;;;;;;;18.73;3.20;;;9.60;99.90;;;;;;5076047;28;20197;-43
2023/12/16 11:23:18;;;;;;;14.73;3.10;;;9.70;99.90;;;;;;5075326;28;20275;-43
2023/12/16 11:25:47;;;;;;;16.37;2.70;;;9.80;99.90;;;;;;5057856;28;20178;-44
2023/12/16 11:28:15;;;;;;;19.17;3.40;;;9.80;99.90;;;;;;5058105;28;20186;-43
2023/12/16 11:30:43;;;;;;;13.97;2.70;;;9.80;99.90;;;;;;5057475;28;20573;-44
2023/12/16 11:33:21;;;;;;;20.43;3.30;;;9.90;99.90;;;;;;5075642;28;20174;-45
2023/12/16 11:35:48;;;;;;;11.27;3.27;;;9.90;99.90;;;;;;5075573;28;20504;-44
2023/12/16 11:38:50;;;;;;;14.57;3.03;;;9.90;99.90;;;;;;5075303;28;20180;-46
2023/12/16 11:41:43;;;;;;;16.57;3.40;;;9.80;99.90;;;;;;4975082;28;20202;-44
2023/12/16 11:44:54;;;;;;;15.53;2.80;;;9.80;99.90;;;;;;5075153;28;20187;-44
2023/12/16 11:47:28;;;;;;;17.40;3.83;;;9.80;99.90;;;;;;5071847;28;20187;-44
2023/12/16 11:49:55;;;;;;;16.20;3.00;;;9.80;99.90;;;;;;5075334;28;20692;-41
2023/12/16 11:52:24;;;;;;;14.07;2.83;;;9.90;99.90;;;;;;5075213;28;20635;-44
2023/12/16 11:54:55;;;;;;;17.40;3.70;;;9.90;99.90;;;;;;5075168;28;20177;-46
2023/12/16 11:57:27;;;;;;;18.43;3.47;;;9.90;99.90;;;;;;5057651;28;20203;-44
2023/12/16 11:59:54;;;;;;;18.77;3.97;;;9.80;99.90;;;;;;5072110;28;20210;-44
2023/12/16 12:02:20;;;;;;;14.03;3.03;;;9.90;99.90;;;;;;5075666;28;20203;-44
2023/12/16 12:04:46;;;;;;;9.33;2.97;;;9.80;99.90;;;;;;5075271;28;20174;-42
2023/12/16 12:07:14;;;;;;;10.27;2.80;;;9.80;99.90;;;;;;5056842;28;20180;-44
2023/12/16 12:09:44;;;;;;;13.27;3.27;;;9.90;99.90;;;;;;5074503;28;20210;-44
2023/12/16 12:12:11;;;;;;;16.37;3.53;;;9.90;99.90;;;;;;5057165;28;20688;-44
2023/12/16 12:14:46;;;;;;;10.07;2.37;;;9.90;99.90;;;;;;5075111;28;20233;-44
2023/12/16 12:17:19;;;;;;;11.87;2.60;;;9.90;99.90;;;;;;5074999;28;20172;-45
2023/12/16 12:19:45;;;;;;;13.57;3.10;;;9.90;99.90;;;;;;5068425;28;20580;-44
2023/12/16 12:22:12;;;;;;;10.53;2.60;;;9.90;99.90;;;;;;5074887;28;20204;-44
2023/12/16 12:24:38;;;;;;;12.43;3.43;;;9.90;99.90;;;;;;5056921;28;20182;-48
2023/12/16 12:27:08;;;;;;;15.50;3.60;;;9.90;99.90;;;;;;5074562;28;20178;-48
2023/12/16 12:30:19;;;;;;;15.90;3.53;;;9.90;99.90;;;;;;5074738;28;20195;-48
2023/12/16 12:33:10;;;;;;;13.50;2.87;;;9.80;99.90;;;;;;5075113;28;20656;-48
2023/12/16 12:35:35;;;;;;;14.97;3.93;;;9.80;99.90;;;;;;5076082;28;20175;-48
2023/12/16 12:38:02;;;;;;;20.03;3.47;;;9.80;99.90;;;;;;5058630;28;20187;-48
2023/12/16 12:40:28;;;;;;;14.80;3.73;;;9.80;99.90;;;;;;5076077;28;20200;-48
2023/12/16 12:42:58;;;;;;;13.93;3.23;;;9.80;99.90;;;;;;5075856;28;20213;-49
2023/12/16 12:45:39;;;;;;;16.87;2.97;;;9.80;99.90;;;;;;5041460;28;20187;-47
2023/12/16 12:48:15;;;;;;;17.53;3.73;;;9.80;99.90;;;;;;5074577;28;20167;-48
2023/12/16 12:51:06;;;;;;;13.67;3.27;;;9.80;99.90;;;;;;5055757;28;20316;-48
2023/12/16 12:53:40;;;;;;;19.73;5.10;;;9.80;99.90;;;;;;5056118;28;20179;-48
2023/12/16 12:56:07;;;;;;;16.57;3.67;;;9.80;99.90;;;;;;5074370;28;20175;-48
2023/12/16 12:58:36;;;;;;;16.03;2.87;;;9.80;99.90;;;;;;5055333;28;20234;-48
2023/12/16 13:01:09;;;;;;;13.13;3.20;;;9.80;99.90;;;;;;5073578;28;20286;-48
2023/12/16 13:03:36;;;;;;;17.90;3.43;;;9.80;99.90;;;;;;5055106;28;20269;-48
2023/12/16 13:06:02;;;;;;;15.03;3.40;;;9.80;99.90;;;;;;5073158;28;20195;-49
2023/12/16 13:08:28;;;;;;;14.57;3.97;;;9.80;99.90;;;;;;5073701;28;20172;-49
2023/12/16 13:10:57;;;;;;;11.43;3.27;;;9.70;99.90;;;;;;5073688;28;20550;-48
2023/12/16 13:13:26;;;;;;;11.57;3.10;;;9.80;99.90;;;;;;5073725;28;20180;-48
2023/12/16 13:16:40;;;;;;;13.27;3.43;;;9.70;99.90;;;;;;5073888;28;20712;-48
2023/12/16 13:19:05;;;;;;;16.97;3.70;;;9.70;99.90;;;;;;5073808;28;20199;-49
2023/12/16 13:21:39;;;;;;;9.37;3.13;;;9.70;99.90;;;;;;5073461;28;20179;-48